Time;durP1;ratioP1;P1;durP2;ratioP2;P2;SDS_P1;SDS_P2;PMS_P1;PMS_P2;Temp;Humidity;BMP_temperature;BMP_pressure;BME280_temperature;BME280_humidity;BME280_pressure;Samples;Min_cycle;Max_cycle;Signal;HPM_P1;HPM_P2
2021/11/22 00:02:15;;;;;;;12.20;3.08;;;;;;;5.06;100.00;101856.19;5259120;28;20036;-69
2021/11/22 00:04:47;;;;;;;8.40;2.70;;;;;;;5.14;100.00;101858.44;5257208;28;20032;-68
2021/11/22 00:07:18;;;;;;;6.18;2.60;;;;;;;5.13;100.00;101870.59;5258877;28;20032;-68
2021/11/22 00:09:49;;;;;;;8.32;2.38;;;;;;;5.13;100.00;101861.97;5257545;28;20113;-69
2021/11/22 00:12:21;;;;;;;7.72;2.80;;;;;;;5.18;100.00;101862.59;5258501;28;20048;-69
2021/11/22 00:14:53;;;;;;;7.38;2.33;;;;;;;5.16;100.00;101869.63;5257856;28;20115;-69
2021/11/22 00:17:24;;;;;;;10.25;2.47;;;;;;;5.14;100.00;101868.84;5258486;28;20134;-69
2021/11/22 00:19:56;;;;;;;7.60;2.15;;;;;;;5.18;100.00;101869.53;5256999;28;20353;-69
2021/11/22 00:22:27;;;;;;;8.88;2.35;;;;;;;5.18;100.00;101872.13;5257881;28;20067;-69
2021/11/22 00:24:58;;;;;;;10.18;2.53;;;;;;;5.18;100.00;101883.38;5259489;28;20098;-69
2021/11/22 00:27:30;;;;;;;10.05;2.22;;;;;;;5.15;100.00;101875.72;5258823;28;20048;-69
2021/11/22 00:30:04;;;;;;;9.25;2.22;;;;;;;5.17;100.00;101891.25;5259044;28;20030;-69
2021/11/22 00:32:36;;;;;;;8.93;2.10;;;;;;;5.15;100.00;101887.84;5258075;28;20037;-69
2021/11/22 00:35:08;;;;;;;8.10;1.95;;;;;;;5.17;100.00;101886.06;5256675;28;20256;-69
2021/11/22 00:37:41;;;;;;;10.30;3.08;;;;;;;5.19;100.00;101899.78;5259364;28;20033;-68
2021/11/22 00:40:14;;;;;;;11.40;2.20;;;;;;;5.22;100.00;101897.91;5256848;28;20411;-69
2021/11/22 00:42:46;;;;;;;6.55;1.95;;;;;;;5.22;100.00;101903.09;5258225;28;20375;-69
2021/11/22 00:45:18;;;;;;;10.52;2.13;;;;;;;5.19;100.00;101911.06;5257325;28;20033;-69
2021/11/22 00:47:49;;;;;;;7.72;1.95;;;;;;;5.16;100.00;101920.75;5257296;28;20854;-68
2021/11/22 00:50:21;;;;;;;6.65;1.75;;;;;;;5.16;100.00;101910.34;5257901;28;20034;-69
2021/11/22 00:52:52;;;;;;;6.93;1.92;;;;;;;5.13;100.00;101919.13;5256923;28;20028;-69
2021/11/22 00:55:24;;;;;;;8.70;2.40;;;;;;;5.11;100.00;101926.13;5258258;28;20095;-69
2021/11/22 00:57:55;;;;;;;10.60;2.38;;;;;;;5.07;100.00;101925.41;5256809;28;20039;-68
2021/11/22 01:00:27;;;;;;;6.90;1.92;;;;;;;5.08;100.00;101940.09;5255615;28;20029;-68
2021/11/22 01:03:00;;;;;;;6.97;1.75;;;;;;;5.05;100.00;101935.03;5258105;28;20056;-68
2021/11/22 01:05:32;;;;;;;6.87;1.80;;;;;;;5.09;100.00;101939.19;5257172;28;20449;-68
2021/11/22 01:08:04;;;;;;;9.75;2.40;;;;;;;5.08;100.00;101947.06;5255685;28;20040;-69
2021/11/22 01:10:37;;;;;;;7.97;2.17;;;;;;;5.07;100.00;101946.19;5257332;28;20122;-69
2021/11/22 01:13:09;;;;;;;6.40;2.50;;;;;;;5.09;100.00;101957.38;5259505;28;20045;-69
2021/11/22 01:15:40;;;;;;;6.07;2.10;;;;;;;5.11;100.00;101952.97;5258612;28;20032;-69
2021/11/22 01:18:12;;;;;;;5.72;1.83;;;;;;;5.12;100.00;101965.03;5256138;28;20037;-69
2021/11/22 01:20:43;;;;;;;7.35;2.00;;;;;;;5.09;100.00;101967.75;5256163;28;20067;-69
2021/11/22 01:23:14;;;;;;;8.05;2.00;;;;;;;5.10;100.00;101969.44;5257323;28;20093;-69
2021/11/22 01:25:46;;;;;;;7.93;1.98;;;;;;;5.07;100.00;101959.19;5258283;28;20027;-68
2021/11/22 01:28:17;;;;;;;7.57;2.13;;;;;;;5.10;100.00;101977.22;5257807;28;20415;-69
2021/11/22 01:30:48;;;;;;;9.63;2.05;;;;;;;5.10;100.00;101969.44;5255663;28;20033;-69
2021/11/22 01:33:20;;;;;;;5.30;1.88;;;;;;;5.08;100.00;101978.22;5255183;28;20075;-68
2021/11/22 01:35:52;;;;;;;4.28;1.50;;;;;;;5.07;100.00;101977.34;5256826;28;20029;-69
2021/11/22 01:38:23;;;;;;;8.45;1.92;;;;;;;5.04;100.00;101987.06;5257175;28;20032;-68
2021/11/22 01:40:55;;;;;;;6.90;1.80;;;;;;;5.04;100.00;101982.72;5259040;28;20016;-69
2021/11/22 01:43:26;;;;;;;5.13;1.70;;;;;;;4.99;100.00;101987.25;5256391;28;20044;-68
2021/11/22 01:45:58;;;;;;;7.47;1.98;;;;;;;5.07;100.00;101999.91;5256362;28;20406;-68
2021/11/22 01:48:29;;;;;;;6.15;1.88;;;;;;;4.98;100.00;102011.53;5255984;28;20470;-68
2021/11/22 01:51:01;;;;;;;6.75;1.88;;;;;;;5.01;100.00;102011.41;5257756;28;20115;-69
2021/11/22 01:53:32;;;;;;;6.20;2.00;;;;;;;5.00;100.00;102011.44;5239348;28;20446;-69
2021/11/22 01:56:03;;;;;;;6.65;2.03;;;;;;;4.99;100.00;102012.38;5256785;28;20517;-68
2021/11/22 01:58:36;;;;;;;5.63;1.50;;;;;;;4.98;100.00;102008.94;5257880;28;20056;-68
2021/11/22 02:01:08;;;;;;;5.80;1.65;;;;;;;4.96;100.00;102008.13;5233550;28;20032;-68
2021/11/22 02:03:39;;;;;;;7.97;1.63;;;;;;;4.92;100.00;102006.59;5256556;28;20093;-69
2021/11/22 02:06:11;;;;;;;7.00;1.80;;;;;;;4.92;100.00;102016.13;5254345;28;20071;-69
2021/11/22 02:08:45;;;;;;;9.10;1.88;;;;;;;4.90;100.00;102018.81;5255999;28;20024;-69
2021/11/22 02:11:17;;;;;;;6.43;1.63;;;;;;;4.89;100.00;102017.13;5257488;28;20075;-69
2021/11/22 02:13:48;;;;;;;3.50;1.50;;;;;;;4.91;100.00;102027.44;5256014;28;20276;-68
2021/11/22 02:16:19;;;;;;;5.22;1.40;;;;;;;4.95;100.00;102039.38;5238551;28;20477;-69
2021/11/22 02:18:51;;;;;;;4.82;1.30;;;;;;;4.88;100.00;102034.44;5256311;28;20047;-69
2021/11/22 02:21:22;;;;;;;4.20;1.80;;;;;;;4.95;100.00;102039.38;5256331;28;20457;-68
2021/11/22 02:23:54;;;;;;;5.78;1.50;;;;;;;4.86;100.00;102040.63;5255244;28;20033;-69
2021/11/22 02:26:26;;;;;;;5.68;1.40;;;;;;;4.87;100.00;102044.91;5255369;28;20025;-69
2021/11/22 02:28:57;;;;;;;7.37;2.10;;;;;;;4.88;100.00;102041.38;5257484;28;20060;-68
2021/11/22 02:31:29;;;;;;;7.70;1.60;;;;;;;4.84;100.00;102039.81;5256336;28;20374;-68
2021/11/22 02:34:00;;;;;;;5.47;1.58;;;;;;;4.86;100.00;102046.66;5257161;28;20498;-68
2021/11/22 02:36:32;;;;;;;5.10;1.55;;;;;;;4.82;100.00;102042.50;5256720;28;20029;-69
2021/11/22 02:39:03;;;;;;;5.03;1.75;;;;;;;4.82;100.00;102050.28;5256726;28;20032;-68
2021/11/22 02:41:38;;;;;;;3.63;1.10;;;;;;;4.81;100.00;102052.94;5253611;28;20035;-69
2021/11/22 02:44:09;;;;;;;5.82;2.45;;;;;;;4.76;100.00;102047.94;5257270;28;20189;-69
2021/11/22 02:46:41;;;;;;;5.72;2.08;;;;;;;4.81;100.00;102052.94;5258320;28;20036;-69
2021/11/22 02:49:12;;;;;;;9.20;1.85;;;;;;;4.78;100.00;102055.69;5258860;28;20059;-68
2021/11/22 02:51:44;;;;;;;12.80;2.17;;;;;;;4.79;100.00;102054.75;5259605;28;20032;-69
2021/11/22 02:54:16;;;;;;;8.95;1.55;;;;;;;4.77;100.00;102062.63;5259494;28;20101;-68
2021/11/22 02:56:47;;;;;;;5.15;1.25;;;;;;;4.78;100.00;102066.06;5262481;28;20033;-68
2021/11/22 02:59:18;;;;;;;4.88;1.35;;;;;;;4.79;100.00;102071.19;5260535;28;20475;-68
2021/11/22 03:01:50;;;;;;;6.93;1.65;;;;;;;4.78;100.00;102064.31;5258142;28;20226;-69
2021/11/22 03:04:32;;;;;;;5.82;1.70;;;;;;;4.89;100.00;102074.25;5257640;28;20127;-69
2021/11/22 03:07:04;;;;;;;5.35;1.23;;;;;;;4.76;100.00;102076.50;5255463;28;20081;-68
2021/11/22 03:09:36;;;;;;;6.38;1.30;;;;;;;4.77;100.00;102082.53;5258675;28;20025;-69
2021/11/22 03:12:10;;;;;;;6.60;1.05;;;;;;;4.79;100.00;102083.31;5258360;28;20486;-69
2021/11/22 03:14:42;;;;;;;5.20;1.63;;;;;;;4.75;100.00;102089.53;5258382;28;20091;-69
2021/11/22 03:17:13;;;;;;;5.93;1.48;;;;;;;4.73;100.00;102093.94;5259098;28;20037;-68
2021/11/22 03:19:45;;;;;;;6.97;1.98;;;;;;;4.73;100.00;102093.94;5257421;28;20542;-69
2021/11/22 03:22:16;;;;;;;6.72;1.60;;;;;;;4.76;100.00;102104.22;5258654;28;20032;-69
2021/11/22 03:24:47;;;;;;;7.55;1.50;;;;;;;4.77;100.00;102100.69;5258348;28;20041;-68
2021/11/22 03:27:19;;;;;;;7.38;1.67;;;;;;;4.76;100.00;102102.44;5260487;28;20016;-68
2021/11/22 03:29:50;;;;;;;5.82;1.33;;;;;;;4.75;100.00;102108.56;5258923;28;20028;-68
2021/11/22 03:32:21;;;;;;;6.78;1.80;;;;;;;4.76;100.00;102106.81;5259542;28;20478;-69
2021/11/22 03:34:53;;;;;;;6.10;1.52;;;;;;;4.74;100.00;102114.66;5260573;28;20085;-69
2021/11/22 03:37:24;;;;;;;11.18;2.00;;;;;;;4.67;100.00;102121.00;5257709;28;20478;-69
2021/11/22 03:39:56;;;;;;;10.57;1.55;;;;;;;4.67;100.00;102125.34;5261389;28;20039;-68
2021/11/22 03:42:36;;;;;;;7.75;1.55;;;;;;;4.64;100.00;102121.13;5260330;28;20405;-69
2021/11/22 03:45:10;;;;;;;6.55;1.70;;;;;;;4.67;100.00;102128.78;5259456;28;20062;-69
2021/11/22 03:47:41;;;;;;;6.43;1.83;;;;;;;4.60;100.00;102120.41;5257242;28;21190;-69
2021/11/22 03:50:13;;;;;;;5.65;1.45;;;;;;;4.62;100.00;102130.69;5258744;28;20029;-68
2021/11/22 03:52:44;;;;;;;5.13;1.50;;;;;;;4.59;100.00;102131.69;5260122;28;20439;-69
2021/11/22 03:55:15;;;;;;;5.03;1.77;;;;;;;4.64;100.00;102129.75;5256104;28;20028;-69
2021/11/22 03:57:47;;;;;;;4.97;1.65;;;;;;;4.64;100.00;102134.09;5258011;28;20049;-69
2021/11/22 04:00:19;;;;;;;3.80;1.95;;;;;;;4.60;100.00;102138.56;5257807;28;20029;-69
2021/11/22 04:02:51;;;;;;;6.18;1.92;;;;;;;4.57;100.00;102149.06;5260017;28;20345;-68
2021/11/22 04:05:22;;;;;;;7.82;1.52;;;;;;;4.52;100.00;102140.63;5259235;28;20032;-69
2021/11/22 04:07:54;;;;;;;7.07;1.70;;;;;;;4.61;100.00;102149.78;5259617;28;20027;-68
2021/11/22 04:10:25;;;;;;;3.75;1.60;;;;;;;4.53;100.00;102150.09;5261694;28;20028;-68
2021/11/22 04:12:56;;;;;;;8.60;1.90;;;;;;;4.48;100.00;102144.22;5257012;28;20051;-68
2021/11/22 04:15:28;;;;;;;4.25;1.40;;;;;;;4.48;100.00;102151.19;5257463;28;20043;-68
2021/11/22 04:18:00;;;;;;;6.07;1.77;;;;;;;4.50;100.00;102170.94;5257533;28;20509;-68
2021/11/22 04:20:32;;;;;;;3.97;1.60;;;;;;;4.49;100.00;102177.06;5241442;28;20028;-68
2021/11/22 04:23:04;;;;;;;5.95;2.28;;;;;;;4.43;100.00;102173.84;5259693;28;20115;-68
2021/11/22 04:25:36;;;;;;;5.90;1.83;;;;;;;4.44;100.00;102191.13;5258966;28;20086;-68
2021/11/22 04:28:10;;;;;;;5.40;1.60;;;;;;;4.42;100.00;102193.75;5259127;28;20024;-69
2021/11/22 04:30:41;;;;;;;7.88;1.60;;;;;;;4.36;100.00;102200.03;5256813;28;20494;-68
2021/11/22 04:33:13;;;;;;;5.07;1.52;;;;;;;4.40;100.00;102203.38;5259739;28;20086;-68
2021/11/22 04:35:44;;;;;;;5.70;1.58;;;;;;;4.38;100.00;102211.19;5259026;28;20029;-69
2021/11/22 04:38:15;;;;;;;5.30;1.98;;;;;;;4.34;100.00;102209.59;5256259;28;20029;-69
2021/11/22 04:40:47;;;;;;;6.82;1.63;;;;;;;4.28;100.00;102202.06;5257417;28;20025;-69
2021/11/22 04:43:18;;;;;;;7.95;1.77;;;;;;;4.34;100.00;102208.75;5238971;28;20482;-68
2021/11/22 04:45:49;;;;;;;5.97;1.80;;;;;;;4.33;100.00;102220.06;5257183;28;20436;-68
2021/11/22 04:48:21;;;;;;;4.78;1.60;;;;;;;4.35;100.00;102224.25;5257864;28;20024;-69
2021/11/22 04:50:52;;;;;;;4.88;1.77;;;;;;;4.30;100.00;102228.78;5257659;28;20032;-69
2021/11/22 04:53:24;;;;;;;8.88;1.60;;;;;;;4.28;100.00;102227.13;5258507;28;20064;-69
2021/11/22 04:55:55;;;;;;;3.55;1.40;;;;;;;4.27;100.00;102228.06;5257196;28;20066;-68
2021/11/22 04:58:27;;;;;;;5.95;1.55;;;;;;;4.28;100.00;102237.50;5257897;28;20035;-68
2021/11/22 05:00:59;;;;;;;5.03;1.80;;;;;;;4.26;100.00;102239.34;5258263;28;20044;-69
2021/11/22 05:03:31;;;;;;;3.60;1.63;;;;;;;4.26;100.00;102241.94;5259293;28;20036;-69
2021/11/22 05:06:02;;;;;;;4.78;1.60;;;;;;;4.25;100.00;102254.06;5255811;28;20699;-68
2021/11/22 05:08:33;;;;;;;6.60;1.67;;;;;;;4.27;100.00;102248.81;5259061;28;20092;-68
2021/11/22 05:11:05;;;;;;;4.95;1.80;;;;;;;4.28;100.00;102253.09;5258872;28;20047;-69
2021/11/22 05:13:36;;;;;;;4.90;1.75;;;;;;;4.25;100.00;102259.25;5256631;28;20119;-69
2021/11/22 05:16:07;;;;;;;5.40;1.90;;;;;;;4.21;100.00;102260.25;5256369;28;20040;-69
2021/11/22 05:18:39;;;;;;;6.75;1.38;;;;;;;4.19;100.00;102279.38;5258173;28;20403;-68
2021/11/22 05:21:10;;;;;;;4.18;1.48;;;;;;;4.19;100.00;102269.81;5257583;28;20024;-68
2021/11/22 05:23:41;;;;;;;5.18;1.70;;;;;;;4.17;100.00;102284.63;5257558;28;20033;-69
2021/11/22 05:26:13;;;;;;;5.57;1.80;;;;;;;4.14;100.00;102285.56;5258665;28;20556;-68
2021/11/22 05:28:44;;;;;;;9.02;1.95;;;;;;;4.13;100.00;102285.63;5257014;28;20430;-68
2021/11/22 05:31:15;;;;;;;4.55;1.75;;;;;;;4.09;100.00;102284.00;5258377;28;20860;-69
2021/11/22 05:33:47;;;;;;;4.28;1.60;;;;;;;4.08;100.00;102290.94;5256647;28;20040;-69
2021/11/22 05:36:18;;;;;;;5.88;1.85;;;;;;;4.11;100.00;102297.78;5255157;28;20103;-68
2021/11/22 05:38:50;;;;;;;5.05;1.45;;;;;;;4.05;100.00;102296.25;5257635;28;20029;-68
2021/11/22 05:41:21;;;;;;;5.85;1.60;;;;;;;3.99;100.00;102299.06;5256874;28;20032;-68
2021/11/22 05:43:52;;;;;;;5.07;1.60;;;;;;;3.98;100.00;102304.28;5258061;28;20040;-68
2021/11/22 05:46:24;;;;;;;5.50;1.52;;;;;;;3.95;100.00;102314.78;5256465;28;20545;-68
2021/11/22 05:48:55;;;;;;;10.25;2.45;;;;;;;3.90;100.00;102310.59;5257281;28;20021;-68
2021/11/22 05:51:27;;;;;;;6.38;1.70;;;;;;;3.88;100.00;102308.94;5257280;28;20560;-68
2021/11/22 05:54:02;;;;;;;6.28;1.52;;;;;;;3.83;100.00;102309.09;5255961;28;20427;-69
2021/11/22 05:56:33;;;;;;;3.90;1.38;;;;;;;3.87;100.00;102315.03;5255375;28;20159;-69
2021/11/22 05:59:04;;;;;;;7.63;1.60;;;;;;;3.84;100.00;102322.91;5255520;28;20425;-68
2021/11/22 06:01:36;;;;;;;3.92;1.70;;;;;;;3.80;100.00;102326.50;5256993;28;20033;-68
2021/11/22 06:04:07;;;;;;;3.63;1.50;;;;;;;3.74;100.00;102339.63;5255231;28;20285;-69
2021/11/22 06:06:38;;;;;;;4.45;1.80;;;;;;;3.75;100.00;102330.97;5253103;28;20079;-68
2021/11/22 06:09:10;;;;;;;8.10;1.80;;;;;;;3.70;100.00;102341.47;5257782;28;20030;-69
2021/11/22 06:11:43;;;;;;;5.25;1.73;;;;;;;3.72;100.00;102344.03;5255616;28;20064;-68
2021/11/22 06:14:14;;;;;;;;;;;;;;;4.18;100.00;102355.50;5258622;28;21257;-68
2021/11/22 06:16:45;;;;;;;4.30;1.50;;;;;;;3.51;100.00;102325.66;5254553;28;19916;-68
2021/11/22 06:19:17;;;;;;;7.25;1.80;;;;;;;3.66;100.00;102353.69;5257002;28;20336;-68
2021/11/22 06:21:49;;;;;;;5.32;1.65;;;;;;;3.63;100.00;102358.13;5259741;28;20039;-68
2021/11/22 06:24:21;;;;;;;6.40;1.63;;;;;;;3.60;100.00;102360.84;5259674;28;20082;-68
2021/11/22 06:26:55;;;;;;;4.88;1.98;;;;;;;3.56;100.00;102354.91;5261978;28;20445;-68
2021/11/22 06:29:26;;;;;;;6.38;2.55;;;;;;;3.60;100.00;102364.28;5262151;28;20024;-68
2021/11/22 06:31:58;;;;;;;3.88;1.67;;;;;;;3.56;100.00;102372.16;5260368;28;20032;-68
2021/11/22 06:34:29;;;;;;;6.15;1.80;;;;;;;3.53;100.00;102372.28;5259808;28;20222;-68
2021/11/22 06:37:00;;;;;;;7.35;2.15;;;;;;;3.37;100.00;102356.34;5260683;28;20032;-68
2021/11/22 06:39:32;;;;;;;3.75;1.80;;;;;;;3.47;100.00;102372.47;5260332;28;20032;-68
2021/11/22 06:42:06;;;;;;;4.18;1.77;;;;;;;3.44;100.00;102380.31;5258967;28;20067;-68
2021/11/22 06:44:37;;;;;;;6.28;2.10;;;;;;;3.44;100.00;102380.31;5260210;28;20028;-68
2021/11/22 06:47:09;;;;;;;7.10;1.90;;;;;;;3.42;100.00;102386.41;5258357;28;20078;-69
2021/11/22 06:49:40;;;;;;;6.13;1.80;;;;;;;3.43;100.00;102389.84;5256334;28;20195;-69
2021/11/22 06:52:13;;;;;;;5.93;1.90;;;;;;;3.42;100.00;102396.75;5259097;28;20828;-69
2021/11/22 06:54:45;;;;;;;5.80;1.85;;;;;;;3.36;100.00;102394.34;5259940;28;20032;-68
2021/11/22 06:57:17;;;;;;;7.13;2.15;;;;;;;3.36;100.00;102396.94;5240128;28;20051;-68
2021/11/22 06:59:49;;;;;;;9.25;1.80;;;;;;;3.33;100.00;102403.94;5259771;28;20119;-69
2021/11/22 07:02:24;;;;;;;9.20;2.58;;;;;;;3.35;100.00;102404.75;5260095;28;20234;-69
2021/11/22 07:04:55;;;;;;;3.60;2.00;;;;;;;3.33;100.00;102416.91;5258510;28;20519;-69
2021/11/22 07:07:27;;;;;;;4.00;2.05;;;;;;;3.34;100.00;102418.63;5261113;28;20024;-68
2021/11/22 07:09:58;;;;;;;5.05;1.75;;;;;;;3.30;100.00;102425.63;5262270;28;20035;-69
2021/11/22 07:12:30;;;;;;;9.05;2.83;;;;;;;3.28;100.00;102429.16;5257047;28;20053;-69
2021/11/22 07:15:02;;;;;;;6.97;2.00;;;;;;;3.28;100.00;102435.16;5258962;28;20059;-68
2021/11/22 07:17:34;;;;;;;5.40;1.92;;;;;;;3.33;100.00;102445.41;5259368;28;20044;-69
2021/11/22 07:20:06;;;;;;;7.93;2.17;;;;;;;3.26;100.00;102451.63;5259463;28;20044;-69
2021/11/22 07:22:37;;;;;;;5.00;2.50;;;;;;;3.24;100.00;102461.22;5259788;28;20037;-69
2021/11/22 07:25:09;;;;;;;6.63;2.13;;;;;;;3.25;100.00;102462.91;5260161;28;20052;-68
2021/11/22 07:27:41;;;;;;;9.27;2.78;;;;;;;3.22;100.00;102470.75;5257941;28;20476;-68
2021/11/22 07:30:17;;;;;;;7.88;1.95;;;;;;;3.21;100.00;102474.25;5257501;28;20024;-69
2021/11/22 07:32:52;;;;;;;5.47;2.00;;;;;;;3.18;100.00;102480.34;5257989;28;20025;-68
2021/11/22 07:35:24;;;;;;;5.72;2.45;;;;;;;3.19;100.00;102484.66;5254408;28;20137;-69
2021/11/22 07:37:55;;;;;;;4.47;2.00;;;;;;;3.21;100.00;102493.22;5256658;28;20032;-69
2021/11/22 07:40:27;;;;;;;7.45;2.17;;;;;;;3.22;100.00;102499.25;5259524;28;20033;-68
2021/11/22 07:42:58;;;;;;;7.75;2.63;;;;;;;3.22;100.00;102507.88;5258439;28;20033;-69
2021/11/22 07:45:30;;;;;;;4.90;2.50;;;;;;;3.28;100.00;102505.09;5256010;28;20036;-69
2021/11/22 07:48:02;;;;;;;6.90;1.92;;;;;;;3.27;100.00;102511.19;5259508;28;20032;-69
2021/11/22 07:50:33;;;;;;;6.47;2.58;;;;;;;3.30;100.00;102515.44;5257453;28;20047;-69
2021/11/22 07:53:04;;;;;;;8.40;2.30;;;;;;;3.33;100.00;102521.38;5256905;28;20533;-69
2021/11/22 07:55:36;;;;;;;6.25;2.25;;;;;;;3.33;100.00;102523.09;5258660;28;20017;-69
2021/11/22 07:58:07;;;;;;;7.38;2.10;;;;;;;3.34;100.00;102520.50;5258269;28;20032;-69
2021/11/22 08:00:38;;;;;;;6.93;2.45;;;;;;;3.37;100.00;102523.00;5258932;28;20460;-69
2021/11/22 08:03:10;;;;;;;6.05;2.28;;;;;;;3.40;100.00;102535.00;5255997;28;20397;-69
2021/11/22 08:05:42;;;;;;;5.93;2.10;;;;;;;3.45;100.00;102530.56;5258464;28;20032;-69
2021/11/22 08:08:13;;;;;;;4.05;1.67;;;;;;;3.47;100.00;102540.88;5258051;28;20024;-69
2021/11/22 08:10:47;;;;;;;4.78;2.15;;;;;;;3.50;100.00;102536.44;5257497;28;20043;-69
2021/11/22 08:13:19;;;;;;;5.32;2.00;;;;;;;3.51;100.00;102551.09;5258289;28;20036;-69
2021/11/22 08:15:50;;;;;;;9.70;2.70;;;;;;;3.54;100.00;102560.53;5258432;28;20039;-70
2021/11/22 08:18:22;;;;;;;5.50;2.47;;;;;;;3.52;100.00;102547.59;5257736;28;20027;-69
2021/11/22 08:20:54;;;;;;;3.55;2.00;;;;;;;3.61;100.00;102547.38;5258149;28;20040;-70
2021/11/22 08:23:26;;;;;;;7.35;2.45;;;;;;;3.61;100.00;102555.16;5255790;28;20024;-69
2021/11/22 08:25:57;;;;;;;6.45;1.73;;;;;;;3.58;100.00;102560.41;5234932;28;20025;-70
2021/11/22 08:28:29;;;;;;;6.78;2.53;;;;;;;3.65;100.00;102563.69;5258103;28;20024;-70
2021/11/22 08:31:00;;;;;;;3.72;1.92;;;;;;;3.69;100.00;102564.44;5256172;28;20482;-70
2021/11/22 08:33:32;;;;;;;6.93;2.28;;;;;;;3.66;100.00;102571.41;5258699;28;20419;-70
2021/11/22 08:36:03;;;;;;;5.45;2.05;;;;;;;3.74;100.00;102573.78;5256518;28;20074;-70
2021/11/22 08:38:34;;;;;;;5.60;2.10;;;;;;;3.82;100.00;102579.59;5254522;28;20788;-69
2021/11/22 08:41:06;;;;;;;8.32;2.17;;;;;;;3.85;100.00;102578.66;5255370;28;20413;-69
2021/11/22 08:43:37;;;;;;;8.90;2.30;;;;;;;3.88;100.00;102576.00;5259774;28;20036;-69
2021/11/22 08:46:09;;;;;;;5.95;1.90;;;;;;;3.92;100.00;102585.38;5260277;28;20829;-69
2021/11/22 08:48:40;;;;;;;3.40;1.90;;;;;;;4.00;100.00;102578.22;5258184;28;20025;-69
2021/11/22 08:51:11;;;;;;;7.40;2.30;;;;;;;4.02;100.00;102586.81;5257351;28;20028;-69
2021/11/22 08:53:43;;;;;;;6.93;2.33;;;;;;;4.05;100.00;102589.31;5259260;28;20028;-69
2021/11/22 08:56:14;;;;;;;13.95;2.83;;;;;;;4.05;100.00;102589.31;5258906;28;20534;-69
2021/11/22 08:58:46;;;;;;;5.28;2.40;;;;;;;4.10;100.00;102591.78;5258035;28;20055;-69
2021/11/22 09:01:18;;;;;;;7.73;2.07;;;;;;;4.15;100.00;102598.50;5255873;28;20028;-69
2021/11/22 09:03:51;;;;;;;6.25;2.28;;;;;;;4.22;100.00;102598.34;5258521;28;20214;-69
2021/11/22 09:06:22;;;;;;;;;;;;;;;4.68;100.00;102600.34;5256591;28;20028;-69
2021/11/22 09:08:54;;;;;;;6.77;2.10;;;;;;;4.38;100.00;102604.75;5257341;28;19916;-68
2021/11/22 09:11:25;;;;;;;8.38;2.75;;;;;;;4.42;100.00;102619.31;5257373;28;20342;-69
2021/11/22 09:13:56;;;;;;;7.13;2.25;;;;;;;4.47;100.00;102617.47;5257270;28;20082;-69
2021/11/22 09:16:28;;;;;;;7.15;2.30;;;;;;;4.51;100.00;102624.25;5258364;28;20815;-69
2021/11/22 09:19:02;;;;;;;8.90;2.40;;;;;;;4.62;100.00;102626.50;5256861;28;20104;-69
2021/11/22 09:21:34;;;;;;;5.18;1.95;;;;;;;4.64;100.00;102622.13;5246244;28;20054;-69
2021/11/22 09:24:06;;;;;;;14.98;3.05;;;;;;;4.69;100.00;102619.38;5255357;28;20036;-69
2021/11/22 09:26:37;;;;;;;3.92;1.88;;;;;;;4.80;100.00;102628.50;5258263;28;20117;-69
2021/11/22 09:29:09;;;;;;;5.05;2.58;;;;;;;4.78;100.00;102622.53;5258161;28;20430;-69
2021/11/22 09:31:41;;;;;;;8.77;2.33;;;;;;;4.86;100.00;102630.06;5251400;28;20032;-69
2021/11/22 09:34:13;;;;;;;16.73;2.50;;;;;;;4.92;100.00;102631.63;5254702;28;20036;-69
2021/11/22 09:36:47;;;;;;;6.97;3.03;;;;;;;5.02;100.00;102640.81;5256197;28;20398;-69
2021/11/22 09:39:19;;;;;;;9.68;2.60;;;;;;;5.11;100.00;102654.38;5255000;28;20055;-69
2021/11/22 09:41:50;;;;;;;5.65;2.03;;;;;;;5.21;100.00;102644.50;5255498;28;20044;-69
2021/11/22 09:44:23;;;;;;;10.68;2.78;;;;;;;5.26;100.00;102645.19;5255063;28;20024;-69
2021/11/22 09:46:54;;;;;;;6.18;2.58;;;;;;;5.31;100.00;102651.09;5254527;28;20051;-69
2021/11/22 09:49:26;;;;;;;5.63;1.88;;;;;;;5.34;100.00;102650.13;5255998;28;20028;-70
2021/11/22 09:51:58;;;;;;;5.90;2.22;;;;;;;5.44;100.00;102648.91;5256097;28;20296;-69
2021/11/22 09:54:29;;;;;;;6.60;1.85;;;;;;;5.49;100.00;102649.63;5254989;28;20048;-69
2021/11/22 09:57:01;;;;;;;6.57;2.25;;;;;;;5.59;100.00;102655.34;5256695;28;20394;-69
2021/11/22 09:59:32;;;;;;;6.28;2.10;;;;;;;5.65;100.00;102647.34;5260809;28;20128;-69
2021/11/22 10:02:03;;;;;;;4.93;1.70;;;;;;;5.70;100.00;102654.97;5259021;28;20089;-69
2021/11/22 10:04:35;;;;;;;4.85;2.08;;;;;;;5.74;100.00;102651.34;5260219;28;20588;-69
2021/11/22 10:07:09;;;;;;;5.90;1.92;;;;;;;5.82;100.00;102663.16;5261460;28;20094;-69
2021/11/22 10:09:43;;;;;;;6.93;2.00;;;;;;;5.91;100.00;102662.00;5260290;28;20032;-69
2021/11/22 10:12:24;;;;;;;4.45;1.90;;;;;;;5.95;100.00;102660.19;5260140;28;20045;-69
2021/11/22 10:14:58;;;;;;;8.13;2.55;;;;;;;5.97;100.00;102664.41;5260076;28;20055;-69
2021/11/22 10:17:38;;;;;;;5.38;1.80;;;;;;;6.03;100.00;102663.34;5262287;28;20032;-69
2021/11/22 10:20:12;;;;;;;5.22;1.90;;;;;;;6.11;100.00;102661.31;5258744;28;20076;-69
2021/11/22 10:22:50;;;;;;;4.60;1.70;;;;;;;6.31;100.00;102665.75;5261150;28;20040;-69
2021/11/22 10:25:35;;;;;;;7.93;1.80;;;;;;;6.37;100.00;102670.75;5259916;28;20116;-69
2021/11/22 10:28:19;;;;;;;3.97;1.90;;;;;;;6.38;100.00;102667.22;5259552;28;20071;-69
2021/11/22 10:31:15;;;;;;;5.93;1.73;;;;;;;6.56;100.00;102657.88;5257941;28;20613;-69
2021/11/22 10:33:48;;;;;;;9.18;1.95;;;;;;;6.43;100.00;102656.63;5252316;28;20051;-69
2021/11/22 10:36:23;;;;;;;3.67;1.70;;;;;;;6.51;100.00;102659.78;5258900;28;20040;-69
2021/11/22 10:38:57;;;;;;;4.35;1.90;;;;;;;6.56;100.00;102656.13;5258930;28;20518;-69
2021/11/22 10:41:31;;;;;;;8.65;2.10;;;;;;;6.56;100.00;102665.69;5261301;28;20025;-69
2021/11/22 10:44:12;;;;;;;2.78;1.38;;;;;;;6.75;100.00;102658.00;5258772;28;20025;-69
2021/11/22 10:46:52;;;;;;;5.70;1.88;;;;;;;6.74;100.00;102659.75;5252406;28;20028;-69
2021/11/22 10:49:42;;;;;;;3.65;1.38;;;;;;;6.82;100.00;102662.06;5259801;28;20490;-69
2021/11/22 10:52:25;;;;;;;5.68;1.98;;;;;;;6.83;100.00;102662.00;5261399;28;20025;-69
2021/11/22 10:54:59;;;;;;;4.83;1.80;;;;;;;6.91;100.00;102666.06;5258490;28;20984;-69
2021/11/22 10:57:39;;;;;;;3.88;1.73;;;;;;;6.96;100.00;102662.34;5259204;28;20375;-69
2021/11/22 11:00:27;;;;;;;7.65;1.63;;;;;;;7.06;100.00;102668.88;5257873;28;20020;-69
2021/11/22 11:03:05;;;;;;;5.20;1.55;;;;;;;7.05;100.00;102661.13;5258944;28;20028;-69
2021/11/22 11:05:39;;;;;;;7.88;1.73;;;;;;;7.05;100.00;102659.38;5260647;28;20558;-69
2021/11/22 11:08:12;;;;;;;4.72;1.58;;;;;;;7.04;100.00;102662.88;5256464;28;20035;-69
2021/11/22 11:10:45;;;;;;;6.22;2.00;;;;;;;7.08;100.00;102658.38;5259026;28;20066;-69
2021/11/22 11:13:16;;;;;;;4.60;1.60;;;;;;;7.10;100.00;102668.75;5259058;28;20036;-69
2021/11/22 11:16:09;;;;;;;5.55;1.90;;;;;;;7.22;100.00;102663.88;5256175;28;20094;-69
2021/11/22 11:18:56;;;;;;;6.80;2.45;;;;;;;7.29;100.00;102669.69;5260401;28;20405;-69
2021/11/22 11:21:30;;;;;;;4.15;1.73;;;;;;;7.27;100.00;102674.09;5258691;28;20036;-69
2021/11/22 11:24:03;;;;;;;5.00;1.67;;;;;;;7.33;100.00;102676.47;5259412;28;20036;-69
2021/11/22 11:26:36;;;;;;;4.00;1.70;;;;;;;7.35;100.00;102674.66;5257255;28;20433;-69
2021/11/22 11:29:09;;;;;;;4.97;2.00;;;;;;;7.34;100.00;102669.50;5259254;28;20950;-69
2021/11/22 11:31:41;;;;;;;3.47;1.75;;;;;;;7.46;100.00;102668.97;5259137;28;20439;-69
2021/11/22 11:34:14;;;;;;;4.88;1.63;;;;;;;7.54;100.00;102672.97;5257444;28;20039;-69
2021/11/22 11:37:01;;;;;;;6.03;1.83;;;;;;;7.58;100.00;102673.69;5257898;28;20116;-69
2021/11/22 11:39:57;;;;;;;6.18;1.52;;;;;;;7.79;100.00;102664.91;5258283;28;20211;-69
2021/11/22 11:42:55;;;;;;;4.60;1.60;;;;;;;7.85;100.00;102668.19;5258550;28;20291;-69
2021/11/22 11:45:29;;;;;;;5.78;1.55;;;;;;;7.70;100.00;102673.16;5254664;28;20033;-69
2021/11/22 11:48:15;;;;;;;6.25;1.48;;;;;;;7.81;100.00;102667.47;5258387;28;20033;-72
2021/11/22 11:50:46;;;;;;;3.05;1.48;;;;;;;7.73;100.00;102670.41;5255541;28;20043;-69